sensor_id;sensor_type;location;lat;lon;timestamp;P1;durP1;ratioP1;P2;durP2;ratioP2
59512;SDS011;45330;51.634;5.562;2023-02-11T00:01:09;33.47;;;16.52;;
59512;SDS011;45330;51.634;5.562;2023-02-11T00:03:43;31.13;;;15.60;;
59512;SDS011;45330;51.634;5.562;2023-02-11T00:06:09;30.48;;;15.52;;
59512;SDS011;45330;51.634;5.562;2023-02-11T00:08:35;30.92;;;17.30;;
59512;SDS011;45330;51.634;5.562;2023-02-11T00:11:01;31.05;;;14.32;;
59512;SDS011;45330;51.634;5.562;2023-02-11T00:13:27;27.15;;;13.98;;
59512;SDS011;45330;51.634;5.562;2023-02-11T00:15:53;28.90;;;14.45;;
59512;SDS011;45330;51.634;5.562;2023-02-11T00:18:20;27.92;;;13.60;;
59512;SDS011;45330;51.634;5.562;2023-02-11T00:20:46;27.15;;;13.15;;
59512;SDS011;45330;51.634;5.562;2023-02-11T00:23:12;28.63;;;14.63;;
59512;SDS011;45330;51.634;5.562;2023-02-11T00:25:41;26.17;;;14.02;;
59512;SDS011;45330;51.634;5.562;2023-02-11T00:28:08;25.50;;;12.45;;
59512;SDS011;45330;51.634;5.562;2023-02-11T00:30:35;27.85;;;12.80;;
59512;SDS011;45330;51.634;5.562;2023-02-11T00:33:01;29.55;;;12.70;;
59512;SDS011;45330;51.634;5.562;2023-02-11T00:35:26;28.48;;;13.02;;
59512;SDS011;45330;51.634;5.562;2023-02-11T00:37:53;26.17;;;12.90;;
59512;SDS011;45330;51.634;5.562;2023-02-11T00:40:19;26.67;;;12.63;;
59512;SDS011;45330;51.634;5.562;2023-02-11T00:42:44;25.67;;;11.45;;
59512;SDS011;45330;51.634;5.562;2023-02-11T00:45:10;27.33;;;12.77;;
59512;SDS011;45330;51.634;5.562;2023-02-11T00:47:35;25.48;;;11.10;;
59512;SDS011;45330;51.634;5.562;2023-02-11T00:50:01;24.25;;;10.07;;
59512;SDS011;45330;51.634;5.562;2023-02-11T00:52:29;25.27;;;11.13;;
59512;SDS011;45330;51.634;5.562;2023-02-11T00:54:55;25.48;;;11.23;;
59512;SDS011;45330;51.634;5.562;2023-02-11T00:57:20;24.00;;;11.07;;
59512;SDS011;45330;51.634;5.562;2023-02-11T00:59:46;24.60;;;10.30;;
59512;SDS011;45330;51.634;5.562;2023-02-11T01:02:11;23.13;;;9.50;;
59512;SDS011;45330;51.634;5.562;2023-02-11T01:04:37;24.38;;;9.15;;
59512;SDS011;45330;51.634;5.562;2023-02-11T01:07:02;22.40;;;9.10;;
59512;SDS011;45330;51.634;5.562;2023-02-11T01:09:28;23.85;;;9.88;;
59512;SDS011;45330;51.634;5.562;2023-02-11T01:11:53;24.92;;;9.07;;
59512;SDS011;45330;51.634;5.562;2023-02-11T01:14:18;22.67;;;9.02;;
59512;SDS011;45330;51.634;5.562;2023-02-11T01:16:44;23.95;;;9.85;;
59512;SDS011;45330;51.634;5.562;2023-02-11T01:19:09;26.70;;;9.73;;
59512;SDS011;45330;51.634;5.562;2023-02-11T01:21:34;25.48;;;9.20;;
59512;SDS011;45330;51.634;5.562;2023-02-11T01:24:00;25.52;;;10.13;;
59512;SDS011;45330;51.634;5.562;2023-02-11T01:26:25;23.58;;;9.35;;
59512;SDS011;45330;51.634;5.562;2023-02-11T01:28:50;23.15;;;8.52;;
59512;SDS011;45330;51.634;5.562;2023-02-11T01:31:16;23.67;;;8.95;;
59512;SDS011;45330;51.634;5.562;2023-02-11T01:33:41;22.33;;;8.93;;
59512;SDS011;45330;51.634;5.562;2023-02-11T01:36:07;24.80;;;9.38;;
59512;SDS011;45330;51.634;5.562;2023-02-11T01:38:33;26.77;;;9.35;;
59512;SDS011;45330;51.634;5.562;2023-02-11T01:41:00;27.20;;;10.23;;
59512;SDS011;45330;51.634;5.562;2023-02-11T01:43:32;23.05;;;8.75;;
59512;SDS011;45330;51.634;5.562;2023-02-11T01:48:52;21.80;;;8.55;;
59512;SDS011;45330;51.634;5.562;2023-02-11T01:51:23;23.25;;;8.13;;
59512;SDS011;45330;51.634;5.562;2023-02-11T01:53:51;23.67;;;7.80;;
59512;SDS011;45330;51.634;5.562;2023-02-11T01:56:37;26.75;;;8.52;;
59512;SDS011;45330;51.634;5.562;2023-02-11T01:59:45;26.50;;;10.18;;
59512;SDS011;45330;51.634;5.562;2023-02-11T02:02:35;22.45;;;8.27;;
59512;SDS011;45330;51.634;5.562;2023-02-11T02:07:51;23.85;;;8.40;;
59512;SDS011;45330;51.634;5.562;2023-02-11T02:10:20;25.75;;;8.80;;
59512;SDS011;45330;51.634;5.562;2023-02-11T02:12:49;27.13;;;8.97;;
59512;SDS011;45330;51.634;5.562;2023-02-11T02:15:22;25.90;;;9.15;;
59512;SDS011;45330;51.634;5.562;2023-02-11T02:17:56;23.73;;;9.00;;
59512;SDS011;45330;51.634;5.562;2023-02-11T02:29:21;22.73;;;8.57;;
59512;SDS011;45330;51.634;5.562;2023-02-11T02:34:47;25.20;;;9.70;;
59512;SDS011;45330;51.634;5.562;2023-02-11T02:37:20;25.08;;;9.63;;
59512;SDS011;45330;51.634;5.562;2023-02-11T02:40:04;23.77;;;9.60;;
59512;SDS011;45330;51.634;5.562;2023-02-11T02:42:37;25.20;;;9.45;;
59512;SDS011;45330;51.634;5.562;2023-02-11T02:45:04;23.45;;;9.02;;
59512;SDS011;45330;51.634;5.562;2023-02-11T02:47:32;24.10;;;9.52;;
59512;SDS011;45330;51.634;5.562;2023-02-11T02:49:57;24.23;;;10.52;;
59512;SDS011;45330;51.634;5.562;2023-02-11T03:08:50;24.50;;;9.68;;
59512;SDS011;45330;51.634;5.562;2023-02-11T03:11:25;25.25;;;9.60;;
59512;SDS011;45330;51.634;5.562;2023-02-11T03:13:51;24.95;;;9.13;;
59512;SDS011;45330;51.634;5.562;2023-02-11T03:16:20;24.73;;;9.27;;
59512;SDS011;45330;51.634;5.562;2023-02-11T03:18:51;23.05;;;9.60;;
59512;SDS011;45330;51.634;5.562;2023-02-11T03:21:21;22.17;;;9.25;;
59512;SDS011;45330;51.634;5.562;2023-02-11T03:23:51;24.02;;;9.68;;
59512;SDS011;45330;51.634;5.562;2023-02-11T03:26:24;25.63;;;9.30;;
59512;SDS011;45330;51.634;5.562;2023-02-11T03:28:58;26.30;;;10.65;;
59512;SDS011;45330;51.634;5.562;2023-02-11T03:31:33;25.65;;;9.93;;
59512;SDS011;45330;51.634;5.562;2023-02-11T03:40:05;23.83;;;9.93;;
59512;SDS011;45330;51.634;5.562;2023-02-11T03:42:39;23.25;;;9.05;;
59512;SDS011;45330;51.634;5.562;2023-02-11T03:45:12;23.85;;;10.00;;
59512;SDS011;45330;51.634;5.562;2023-02-11T03:47:43;22.95;;;9.57;;
59512;SDS011;45330;51.634;5.562;2023-02-11T03:50:13;24.25;;;9.25;;
59512;SDS011;45330;51.634;5.562;2023-02-11T03:52:40;23.88;;;9.25;;
59512;SDS011;45330;51.634;5.562;2023-02-11T03:55:07;26.80;;;10.15;;
59512;SDS011;45330;51.634;5.562;2023-02-11T03:57:37;22.88;;;9.88;;
59512;SDS011;45330;51.634;5.562;2023-02-11T04:00:03;24.08;;;9.65;;
59512;SDS011;45330;51.634;5.562;2023-02-11T04:02:30;23.63;;;8.77;;
59512;SDS011;45330;51.634;5.562;2023-02-11T04:04:58;24.00;;;9.73;;
59512;SDS011;45330;51.634;5.562;2023-02-11T04:07:24;25.50;;;9.38;;
59512;SDS011;45330;51.634;5.562;2023-02-11T04:09:49;25.40;;;9.75;;
59512;SDS011;45330;51.634;5.562;2023-02-11T04:12:15;23.30;;;9.93;;
59512;SDS011;45330;51.634;5.562;2023-02-11T04:14:40;27.52;;;9.48;;
59512;SDS011;45330;51.634;5.562;2023-02-11T04:17:06;26.77;;;9.10;;
59512;SDS011;45330;51.634;5.562;2023-02-11T04:19:31;24.20;;;9.43;;
59512;SDS011;45330;51.634;5.562;2023-02-11T04:21:57;24.35;;;10.63;;
59512;SDS011;45330;51.634;5.562;2023-02-11T04:24:22;25.10;;;9.95;;
59512;SDS011;45330;51.634;5.562;2023-02-11T04:26:48;23.65;;;9.32;;
59512;SDS011;45330;51.634;5.562;2023-02-11T04:29:13;23.80;;;9.50;;
59512;SDS011;45330;51.634;5.562;2023-02-11T04:31:39;24.15;;;9.85;;
59512;SDS011;45330;51.634;5.562;2023-02-11T04:34:04;21.48;;;9.20;;
59512;SDS011;45330;51.634;5.562;2023-02-11T04:36:29;26.17;;;9.63;;
59512;SDS011;45330;51.634;5.562;2023-02-11T04:38:55;24.80;;;9.68;;
59512;SDS011;45330;51.634;5.562;2023-02-11T04:41:20;23.75;;;9.80;;
59512;SDS011;45330;51.634;5.562;2023-02-11T04:43:45;25.92;;;9.68;;
59512;SDS011;45330;51.634;5.562;2023-02-11T04:46:11;24.45;;;10.60;;
59512;SDS011;45330;51.634;5.562;2023-02-11T04:48:36;22.17;;;9.52;;
59512;SDS011;45330;51.634;5.562;2023-02-11T04:51:02;25.20;;;10.50;;
59512;SDS011;45330;51.634;5.562;2023-02-11T04:53:27;26.85;;;10.45;;
59512;SDS011;45330;51.634;5.562;2023-02-11T04:55:53;25.83;;;10.15;;
59512;SDS011;45330;51.634;5.562;2023-02-11T04:58:18;25.20;;;10.30;;
59512;SDS011;45330;51.634;5.562;2023-02-11T05:00:44;30.50;;;10.63;;
59512;SDS011;45330;51.634;5.562;2023-02-11T05:03:10;27.25;;;11.25;;
59512;SDS011;45330;51.634;5.562;2023-02-11T05:05:40;22.98;;;9.43;;
59512;SDS011;45330;51.634;5.562;2023-02-11T05:08:07;26.85;;;9.73;;
59512;SDS011;45330;51.634;5.562;2023-02-11T05:10:33;25.25;;;10.70;;
59512;SDS011;45330;51.634;5.562;2023-02-11T05:12:59;23.98;;;9.98;;
59512;SDS011;45330;51.634;5.562;2023-02-11T05:15:24;24.35;;;10.32;;
59512;SDS011;45330;51.634;5.562;2023-02-11T05:17:50;24.55;;;10.65;;
59512;SDS011;45330;51.634;5.562;2023-02-11T05:20:15;26.67;;;11.50;;
59512;SDS011;45330;51.634;5.562;2023-02-11T05:22:41;28.55;;;11.15;;
59512;SDS011;45330;51.634;5.562;2023-02-11T05:25:06;26.70;;;11.80;;
59512;SDS011;45330;51.634;5.562;2023-02-11T05:27:32;27.98;;;11.32;;
59512;SDS011;45330;51.634;5.562;2023-02-11T05:29:57;25.92;;;10.40;;
59512;SDS011;45330;51.634;5.562;2023-02-11T05:32:22;25.45;;;11.32;;
59512;SDS011;45330;51.634;5.562;2023-02-11T05:34:48;24.10;;;11.02;;
59512;SDS011;45330;51.634;5.562;2023-02-11T05:37:13;25.58;;;12.27;;
59512;SDS011;45330;51.634;5.562;2023-02-11T05:39:39;25.38;;;11.32;;
59512;SDS011;45330;51.634;5.562;2023-02-11T05:42:05;31.45;;;12.05;;
59512;SDS011;45330;51.634;5.562;2023-02-11T05:44:30;26.77;;;11.93;;
59512;SDS011;45330;51.634;5.562;2023-02-11T05:46:56;28.15;;;11.35;;
59512;SDS011;45330;51.634;5.562;2023-02-11T05:49:21;27.33;;;12.05;;
59512;SDS011;45330;51.634;5.562;2023-02-11T05:51:47;28.00;;;12.15;;
59512;SDS011;45330;51.634;5.562;2023-02-11T05:54:12;28.13;;;12.23;;
59512;SDS011;45330;51.634;5.562;2023-02-11T05:56:38;26.70;;;12.70;;
59512;SDS011;45330;51.634;5.562;2023-02-11T05:59:03;33.85;;;13.38;;
59512;SDS011;45330;51.634;5.562;2023-02-11T06:01:28;30.17;;;13.27;;
59512;SDS011;45330;51.634;5.562;2023-02-11T06:03:54;26.63;;;13.13;;
59512;SDS011;45330;51.634;5.562;2023-02-11T06:06:19;28.73;;;13.15;;
59512;SDS011;45330;51.634;5.562;2023-02-11T06:08:45;29.50;;;14.27;;
59512;SDS011;45330;51.634;5.562;2023-02-11T06:11:13;28.70;;;13.50;;
59512;SDS011;45330;51.634;5.562;2023-02-11T06:13:39;29.83;;;13.73;;
59512;SDS011;45330;51.634;5.562;2023-02-11T06:16:04;27.58;;;13.45;;
59512;SDS011;45330;51.634;5.562;2023-02-11T06:18:30;29.42;;;14.02;;
59512;SDS011;45330;51.634;5.562;2023-02-11T06:20:57;30.67;;;14.90;;
59512;SDS011;45330;51.634;5.562;2023-02-11T06:23:23;29.15;;;13.98;;
59512;SDS011;45330;51.634;5.562;2023-02-11T06:25:49;26.23;;;13.65;;
59512;SDS011;45330;51.634;5.562;2023-02-11T06:28:14;31.42;;;14.82;;
59512;SDS011;45330;51.634;5.562;2023-02-11T06:30:40;31.70;;;15.05;;
59512;SDS011;45330;51.634;5.562;2023-02-11T06:33:05;30.80;;;14.63;;
59512;SDS011;45330;51.634;5.562;2023-02-11T06:35:30;32.33;;;15.32;;
59512;SDS011;45330;51.634;5.562;2023-02-11T06:37:57;28.92;;;14.77;;
59512;SDS011;45330;51.634;5.562;2023-02-11T06:40:23;31.08;;;15.15;;
59512;SDS011;45330;51.634;5.562;2023-02-11T06:42:48;33.30;;;15.32;;
59512;SDS011;45330;51.634;5.562;2023-02-11T06:45:14;32.08;;;16.70;;
59512;SDS011;45330;51.634;5.562;2023-02-11T06:47:39;32.90;;;15.93;;
59512;SDS011;45330;51.634;5.562;2023-02-11T06:50:06;30.35;;;16.65;;
59512;SDS011;45330;51.634;5.562;2023-02-11T06:52:33;32.28;;;16.08;;
59512;SDS011;45330;51.634;5.562;2023-02-11T06:54:58;34.33;;;16.67;;
59512;SDS011;45330;51.634;5.562;2023-02-11T06:57:24;31.45;;;16.35;;
59512;SDS011;45330;51.634;5.562;2023-02-11T06:59:49;33.97;;;17.30;;
59512;SDS011;45330;51.634;5.562;2023-02-11T07:02:14;32.05;;;17.33;;
59512;SDS011;45330;51.634;5.562;2023-02-11T07:04:40;34.58;;;18.17;;
59512;SDS011;45330;51.634;5.562;2023-02-11T07:07:05;34.20;;;17.27;;
59512;SDS011;45330;51.634;5.562;2023-02-11T07:09:31;33.22;;;17.08;;
59512;SDS011;45330;51.634;5.562;2023-02-11T07:11:56;34.45;;;16.88;;
59512;SDS011;45330;51.634;5.562;2023-02-11T07:14:22;35.15;;;18.00;;
59512;SDS011;45330;51.634;5.562;2023-02-11T07:16:47;33.15;;;17.98;;
59512;SDS011;45330;51.634;5.562;2023-02-11T07:19:12;34.58;;;18.70;;
59512;SDS011;45330;51.634;5.562;2023-02-11T07:21:38;35.80;;;18.30;;
59512;SDS011;45330;51.634;5.562;2023-02-11T07:24:07;34.47;;;17.63;;
59512;SDS011;45330;51.634;5.562;2023-02-11T07:26:34;34.03;;;18.92;;
59512;SDS011;45330;51.634;5.562;2023-02-11T07:29:00;33.67;;;19.40;;
59512;SDS011;45330;51.634;5.562;2023-02-11T07:31:27;33.33;;;19.02;;
59512;SDS011;45330;51.634;5.562;2023-02-11T07:33:54;33.85;;;20.10;;
59512;SDS011;45330;51.634;5.562;2023-02-11T07:36:21;35.25;;;20.00;;
59512;SDS011;45330;51.634;5.562;2023-02-11T07:38:47;38.65;;;20.40;;
59512;SDS011;45330;51.634;5.562;2023-02-11T07:41:13;38.65;;;21.00;;
59512;SDS011;45330;51.634;5.562;2023-02-11T07:43:40;36.60;;;20.20;;
59512;SDS011;45330;51.634;5.562;2023-02-11T07:46:08;42.15;;;20.45;;
59512;SDS011;45330;51.634;5.562;2023-02-11T07:48:35;38.65;;;19.90;;
59512;SDS011;45330;51.634;5.562;2023-02-11T07:51:04;34.72;;;20.70;;
59512;SDS011;45330;51.634;5.562;2023-02-11T07:53:31;35.92;;;19.88;;
59512;SDS011;45330;51.634;5.562;2023-02-11T07:55:56;35.40;;;21.17;;
59512;SDS011;45330;51.634;5.562;2023-02-11T07:58:22;38.33;;;20.92;;
59512;SDS011;45330;51.634;5.562;2023-02-11T08:00:47;37.70;;;21.30;;
59512;SDS011;45330;51.634;5.562;2023-02-11T08:03:12;36.75;;;20.67;;
59512;SDS011;45330;51.634;5.562;2023-02-11T08:05:38;41.13;;;21.00;;
59512;SDS011;45330;51.634;5.562;2023-02-11T08:08:03;39.95;;;22.27;;
59512;SDS011;45330;51.634;5.562;2023-02-11T08:10:29;39.55;;;20.77;;
59512;SDS011;45330;51.634;5.562;2023-02-11T08:12:54;43.05;;;21.10;;
59512;SDS011;45330;51.634;5.562;2023-02-11T08:15:19;40.28;;;22.10;;
59512;SDS011;45330;51.634;5.562;2023-02-11T08:17:45;37.03;;;21.23;;
59512;SDS011;45330;51.634;5.562;2023-02-11T08:20:10;38.67;;;21.85;;
59512;SDS011;45330;51.634;5.562;2023-02-11T08:22:36;42.55;;;23.25;;
59512;SDS011;45330;51.634;5.562;2023-02-11T08:25:01;38.53;;;22.42;;
59512;SDS011;45330;51.634;5.562;2023-02-11T08:27:27;35.38;;;20.92;;
59512;SDS011;45330;51.634;5.562;2023-02-11T08:29:52;41.50;;;22.60;;
59512;SDS011;45330;51.634;5.562;2023-02-11T08:32:19;37.85;;;22.00;;
59512;SDS011;45330;51.634;5.562;2023-02-11T08:34:44;39.45;;;22.40;;
59512;SDS011;45330;51.634;5.562;2023-02-11T08:37:10;41.67;;;23.35;;
59512;SDS011;45330;51.634;5.562;2023-02-11T08:39:36;37.35;;;22.52;;
59512;SDS011;45330;51.634;5.562;2023-02-11T08:42:01;38.17;;;22.88;;
59512;SDS011;45330;51.634;5.562;2023-02-11T08:44:27;40.42;;;22.45;;
59512;SDS011;45330;51.634;5.562;2023-02-11T08:46:53;40.55;;;22.48;;
59512;SDS011;45330;51.634;5.562;2023-02-11T08:49:19;42.00;;;23.45;;
59512;SDS011;45330;51.634;5.562;2023-02-11T08:51:46;42.28;;;24.25;;
59512;SDS011;45330;51.634;5.562;2023-02-11T08:54:12;40.70;;;23.55;;
59512;SDS011;45330;51.634;5.562;2023-02-11T08:56:38;40.03;;;22.50;;
59512;SDS011;45330;51.634;5.562;2023-02-11T08:59:04;38.80;;;23.63;;
59512;SDS011;45330;51.634;5.562;2023-02-11T09:01:30;40.90;;;24.42;;
59512;SDS011;45330;51.634;5.562;2023-02-11T09:03:56;41.10;;;24.08;;
59512;SDS011;45330;51.634;5.562;2023-02-11T09:06:22;43.83;;;25.10;;
59512;SDS011;45330;51.634;5.562;2023-02-11T09:08:49;41.70;;;23.45;;
59512;SDS011;45330;51.634;5.562;2023-02-11T09:11:17;39.90;;;23.17;;
59512;SDS011;45330;51.634;5.562;2023-02-11T09:13:44;43.00;;;24.45;;
59512;SDS011;45330;51.634;5.562;2023-02-11T09:16:20;37.70;;;22.55;;
59512;SDS011;45330;51.634;5.562;2023-02-11T09:18:50;42.67;;;24.38;;
59512;SDS011;45330;51.634;5.562;2023-02-11T09:21:17;40.72;;;23.60;;
59512;SDS011;45330;51.634;5.562;2023-02-11T09:23:44;38.53;;;22.63;;
59512;SDS011;45330;51.634;5.562;2023-02-11T09:29:06;37.20;;;23.23;;
59512;SDS011;45330;51.634;5.562;2023-02-11T09:31:32;39.33;;;23.10;;
59512;SDS011;45330;51.634;5.562;2023-02-11T09:33:59;40.15;;;23.05;;
59512;SDS011;45330;51.634;5.562;2023-02-11T09:36:28;40.78;;;23.85;;
59512;SDS011;45330;51.634;5.562;2023-02-11T09:38:57;43.10;;;23.13;;
59512;SDS011;45330;51.634;5.562;2023-02-11T09:44:02;40.38;;;23.73;;
59512;SDS011;45330;51.634;5.562;2023-02-11T09:46:31;38.45;;;23.60;;
59512;SDS011;45330;51.634;5.562;2023-02-11T09:49:00;38.58;;;22.55;;
59512;SDS011;45330;51.634;5.562;2023-02-11T09:51:46;40.22;;;23.38;;
59512;SDS011;45330;51.634;5.562;2023-02-11T09:54:36;39.28;;;23.98;;
59512;SDS011;45330;51.634;5.562;2023-02-11T09:57:17;38.75;;;23.92;;
59512;SDS011;45330;51.634;5.562;2023-02-11T09:59:43;37.47;;;23.25;;
59512;SDS011;45330;51.634;5.562;2023-02-11T10:02:12;38.92;;;22.67;;
59512;SDS011;45330;51.634;5.562;2023-02-11T10:07:50;36.75;;;22.17;;
59512;SDS011;45330;51.634;5.562;2023-02-11T10:10:39;38.90;;;22.38;;
59512;SDS011;45330;51.634;5.562;2023-02-11T10:13:20;40.88;;;23.63;;
59512;SDS011;45330;51.634;5.562;2023-02-11T10:15:58;37.00;;;23.17;;
59512;SDS011;45330;51.634;5.562;2023-02-11T10:21:47;38.00;;;23.13;;
59512;SDS011;45330;51.634;5.562;2023-02-11T10:24:23;40.10;;;24.33;;
59512;SDS011;45330;51.634;5.562;2023-02-11T10:26:49;36.95;;;22.73;;
59512;SDS011;45330;51.634;5.562;2023-02-11T10:29:34;37.42;;;23.30;;
59512;SDS011;45330;51.634;5.562;2023-02-11T10:32:13;41.78;;;24.73;;
59512;SDS011;45330;51.634;5.562;2023-02-11T10:34:48;37.20;;;23.20;;
59512;SDS011;45330;51.634;5.562;2023-02-11T10:37:17;40.97;;;24.60;;
59512;SDS011;45330;51.634;5.562;2023-02-11T10:39:42;37.58;;;22.70;;
59512;SDS011;45330;51.634;5.562;2023-02-11T10:42:09;42.67;;;24.77;;
59512;SDS011;45330;51.634;5.562;2023-02-11T10:44:37;38.53;;;23.80;;
59512;SDS011;45330;51.634;5.562;2023-02-11T10:47:14;42.10;;;24.52;;
59512;SDS011;45330;51.634;5.562;2023-02-11T10:49:46;39.22;;;23.85;;
59512;SDS011;45330;51.634;5.562;2023-02-11T10:55:05;40.03;;;24.00;;
59512;SDS011;45330;51.634;5.562;2023-02-11T10:57:42;37.65;;;23.65;;
59512;SDS011;45330;51.634;5.562;2023-02-11T11:03:01;39.05;;;25.00;;
59512;SDS011;45330;51.634;5.562;2023-02-11T11:05:36;38.78;;;24.25;;
59512;SDS011;45330;51.634;5.562;2023-02-11T11:08:11;37.63;;;24.17;;
59512;SDS011;45330;51.634;5.562;2023-02-11T11:10:41;40.08;;;23.73;;
59512;SDS011;45330;51.634;5.562;2023-02-11T11:16:06;38.63;;;24.23;;
59512;SDS011;45330;51.634;5.562;2023-02-11T11:18:38;39.05;;;22.70;;
59512;SDS011;45330;51.634;5.562;2023-02-11T11:23:46;41.38;;;25.40;;
59512;SDS011;45330;51.634;5.562;2023-02-11T11:26:15;39.47;;;23.40;;
59512;SDS011;45330;51.634;5.562;2023-02-11T11:28:42;41.47;;;26.40;;
59512;SDS011;45330;51.634;5.562;2023-02-11T11:33:57;39.65;;;22.98;;
59512;SDS011;45330;51.634;5.562;2023-02-11T11:36:32;39.83;;;23.70;;
59512;SDS011;45330;51.634;5.562;2023-02-11T11:39:00;38.50;;;22.95;;
59512;SDS011;45330;51.634;5.562;2023-02-11T11:41:39;37.38;;;23.73;;
59512;SDS011;45330;51.634;5.562;2023-02-11T11:44:22;39.75;;;23.15;;
59512;SDS011;45330;51.634;5.562;2023-02-11T11:49:48;39.30;;;22.50;;
59512;SDS011;45330;51.634;5.562;2023-02-11T11:54:46;43.42;;;22.83;;
59512;SDS011;45330;51.634;5.562;2023-02-11T11:57:21;36.13;;;22.05;;
59512;SDS011;45330;51.634;5.562;2023-02-11T11:59:52;37.72;;;22.55;;
59512;SDS011;45330;51.634;5.562;2023-02-11T12:02:27;34.03;;;21.98;;
59512;SDS011;45330;51.634;5.562;2023-02-11T12:07:59;35.22;;;21.77;;
59512;SDS011;45330;51.634;5.562;2023-02-11T12:24:47;34.63;;;20.95;;
59512;SDS011;45330;51.634;5.562;2023-02-11T12:35:30;33.50;;;18.95;;
59512;SDS011;45330;51.634;5.562;2023-02-11T12:40:44;30.90;;;17.88;;
59512;SDS011;45330;51.634;5.562;2023-02-11T12:43:21;29.85;;;18.75;;
59512;SDS011;45330;51.634;5.562;2023-02-11T12:45:52;30.88;;;18.02;;
59512;SDS011;45330;51.634;5.562;2023-02-11T12:48:58;32.13;;;18.55;;
59512;SDS011;45330;51.634;5.562;2023-02-11T12:54:26;29.90;;;17.30;;
59512;SDS011;45330;51.634;5.562;2023-02-11T12:56:56;30.23;;;17.23;;
59512;SDS011;45330;51.634;5.562;2023-02-11T12:59:32;33.10;;;19.25;;
59512;SDS011;45330;51.634;5.562;2023-02-11T13:02:08;30.92;;;18.15;;
59512;SDS011;45330;51.634;5.562;2023-02-11T13:04:44;34.33;;;19.17;;
59512;SDS011;45330;51.634;5.562;2023-02-11T13:09:44;31.10;;;18.05;;
59512;SDS011;45330;51.634;5.562;2023-02-11T13:12:20;29.77;;;18.05;;
59512;SDS011;45330;51.634;5.562;2023-02-11T13:15:08;36.78;;;18.63;;
59512;SDS011;45330;51.634;5.562;2023-02-11T13:20:28;32.13;;;18.77;;
59512;SDS011;45330;51.634;5.562;2023-02-11T13:23:07;32.67;;;18.65;;
59512;SDS011;45330;51.634;5.562;2023-02-11T13:25:56;31.00;;;17.95;;
59512;SDS011;45330;51.634;5.562;2023-02-11T13:33:31;30.25;;;18.10;;
59512;SDS011;45330;51.634;5.562;2023-02-11T13:38:25;29.83;;;18.55;;
59512;SDS011;45330;51.634;5.562;2023-02-11T13:43:26;31.80;;;17.95;;
59512;SDS011;45330;51.634;5.562;2023-02-11T13:45:57;29.85;;;18.33;;
59512;SDS011;45330;51.634;5.562;2023-02-11T13:48:38;30.48;;;18.52;;
59512;SDS011;45330;51.634;5.562;2023-02-11T13:51:11;28.67;;;17.90;;
59512;SDS011;45330;51.634;5.562;2023-02-11T13:53:43;29.23;;;18.17;;
59512;SDS011;45330;51.634;5.562;2023-02-11T13:56:21;28.52;;;17.27;;
59512;SDS011;45330;51.634;5.562;2023-02-11T13:58:57;30.55;;;17.42;;
59512;SDS011;45330;51.634;5.562;2023-02-11T14:04:21;30.63;;;18.02;;
59512;SDS011;45330;51.634;5.562;2023-02-11T14:07:29;27.63;;;15.40;;
59512;SDS011;45330;51.634;5.562;2023-02-11T14:13:55;27.92;;;15.85;;
59512;SDS011;45330;51.634;5.562;2023-02-11T14:23:41;29.02;;;16.60;;
59512;SDS011;45330;51.634;5.562;2023-02-11T14:28:53;27.27;;;15.40;;
59512;SDS011;45330;51.634;5.562;2023-02-11T14:39:54;28.35;;;15.23;;
59512;SDS011;45330;51.634;5.562;2023-02-11T14:42:54;27.60;;;14.95;;
59512;SDS011;45330;51.634;5.562;2023-02-11T14:45:22;30.83;;;15.68;;
59512;SDS011;45330;51.634;5.562;2023-02-11T14:48:12;29.25;;;16.13;;
59512;SDS011;45330;51.634;5.562;2023-02-11T14:50:42;27.02;;;15.05;;
59512;SDS011;45330;51.634;5.562;2023-02-11T14:53:14;27.33;;;14.80;;
59512;SDS011;45330;51.634;5.562;2023-02-11T14:55:43;28.15;;;15.70;;
59512;SDS011;45330;51.634;5.562;2023-02-11T15:03:32;26.15;;;14.50;;
59512;SDS011;45330;51.634;5.562;2023-02-11T15:05:59;30.05;;;16.52;;
59512;SDS011;45330;51.634;5.562;2023-02-11T15:08:25;28.45;;;16.10;;
59512;SDS011;45330;51.634;5.562;2023-02-11T15:10:52;28.25;;;15.07;;
59512;SDS011;45330;51.634;5.562;2023-02-11T15:13:19;26.20;;;14.52;;
59512;SDS011;45330;51.634;5.562;2023-02-11T15:15:53;26.05;;;14.73;;
59512;SDS011;45330;51.634;5.562;2023-02-11T15:18:23;28.23;;;14.48;;
59512;SDS011;45330;51.634;5.562;2023-02-11T15:20:57;24.55;;;13.52;;
59512;SDS011;45330;51.634;5.562;2023-02-11T15:23:23;25.42;;;14.02;;
59512;SDS011;45330;51.634;5.562;2023-02-11T15:25:51;25.85;;;13.68;;
59512;SDS011;45330;51.634;5.562;2023-02-11T15:28:26;26.50;;;14.45;;
59512;SDS011;45330;51.634;5.562;2023-02-11T15:31:10;27.48;;;15.20;;
59512;SDS011;45330;51.634;5.562;2023-02-11T15:33:38;28.15;;;15.35;;
59512;SDS011;45330;51.634;5.562;2023-02-11T15:36:04;27.33;;;14.25;;
59512;SDS011;45330;51.634;5.562;2023-02-11T15:38:29;26.35;;;14.48;;
59512;SDS011;45330;51.634;5.562;2023-02-11T15:41:02;27.38;;;14.45;;
59512;SDS011;45330;51.634;5.562;2023-02-11T15:43:41;26.27;;;14.25;;
59512;SDS011;45330;51.634;5.562;2023-02-11T15:46:08;25.88;;;14.85;;
59512;SDS011;45330;51.634;5.562;2023-02-11T15:48:36;25.85;;;14.55;;
59512;SDS011;45330;51.634;5.562;2023-02-11T15:51:12;27.52;;;15.90;;
59512;SDS011;45330;51.634;5.562;2023-02-11T15:53:47;27.42;;;16.40;;
59512;SDS011;45330;51.634;5.562;2023-02-11T15:56:22;27.20;;;15.63;;
59512;SDS011;45330;51.634;5.562;2023-02-11T15:58:49;31.55;;;16.92;;
59512;SDS011;45330;51.634;5.562;2023-02-11T16:01:17;30.73;;;16.55;;
59512;SDS011;45330;51.634;5.562;2023-02-11T16:03:43;30.58;;;16.70;;
59512;SDS011;45330;51.634;5.562;2023-02-11T16:09:01;26.70;;;15.93;;
59512;SDS011;45330;51.634;5.562;2023-02-11T16:11:33;30.75;;;16.98;;
59512;SDS011;45330;51.634;5.562;2023-02-11T16:14:01;29.70;;;17.02;;
59512;SDS011;45330;51.634;5.562;2023-02-11T16:16:45;29.45;;;17.33;;
59512;SDS011;45330;51.634;5.562;2023-02-11T16:19:16;30.17;;;18.73;;
59512;SDS011;45330;51.634;5.562;2023-02-11T16:21:44;30.17;;;17.73;;
59512;SDS011;45330;51.634;5.562;2023-02-11T16:24:20;29.27;;;17.73;;
59512;SDS011;45330;51.634;5.562;2023-02-11T16:26:53;30.65;;;18.05;;
59512;SDS011;45330;51.634;5.562;2023-02-11T16:29:25;30.17;;;18.05;;
59512;SDS011;45330;51.634;5.562;2023-02-11T16:34:20;30.35;;;17.45;;
59512;SDS011;45330;51.634;5.562;2023-02-11T16:36:49;31.38;;;18.15;;
59512;SDS011;45330;51.634;5.562;2023-02-11T16:39:16;29.90;;;17.45;;
59512;SDS011;45330;51.634;5.562;2023-02-11T16:41:42;30.33;;;17.52;;
59512;SDS011;45330;51.634;5.562;2023-02-11T16:44:08;32.17;;;18.33;;
59512;SDS011;45330;51.634;5.562;2023-02-11T16:46:34;30.45;;;18.55;;
59512;SDS011;45330;51.634;5.562;2023-02-11T16:49:07;30.88;;;17.75;;
59512;SDS011;45330;51.634;5.562;2023-02-11T16:51:39;31.30;;;18.35;;
59512;SDS011;45330;51.634;5.562;2023-02-11T16:54:05;30.70;;;18.33;;
59512;SDS011;45330;51.634;5.562;2023-02-11T16:56:31;31.50;;;18.27;;
59512;SDS011;45330;51.634;5.562;2023-02-11T16:58:57;29.80;;;17.40;;
59512;SDS011;45330;51.634;5.562;2023-02-11T17:01:22;34.08;;;18.45;;
59512;SDS011;45330;51.634;5.562;2023-02-11T17:03:48;31.02;;;18.65;;
59512;SDS011;45330;51.634;5.562;2023-02-11T17:06:13;30.10;;;17.52;;
59512;SDS011;45330;51.634;5.562;2023-02-11T17:08:39;30.33;;;17.73;;